sensor_id;sensor_type;location;lat;lon;timestamp;pressure;altitude;pressure_sealevel;temperature;humidity
36354;BME280;22383;51.114;13.666;2022-10-18T00:01:01;68730.81;;;13.97;100.00
36354;BME280;22383;51.114;13.666;2022-10-18T00:03:28;68720.19;;;13.90;100.00
36354;BME280;22383;51.114;13.666;2022-10-18T00:05:56;68733.28;;;14.02;100.00
36354;BME280;22383;51.114;13.666;2022-10-18T00:08:23;68738.59;;;14.02;100.00
36354;BME280;22383;51.114;13.666;2022-10-18T00:10:51;68726.44;;;13.95;100.00
36354;BME280;22383;51.114;13.666;2022-10-18T00:13:18;68730.81;;;13.97;100.00
36354;BME280;22383;51.114;13.666;2022-10-18T00:15:47;68727.22;;;13.91;100.00
36354;BME280;22383;51.114;13.666;2022-10-18T00:18:14;68733.09;;;13.99;100.00
36354;BME280;22383;51.114;13.666;2022-10-18T00:20:41;68713.69;;;14.03;100.00
36354;BME280;22383;51.114;13.666;2022-10-18T00:23:08;68728.53;;;13.95;100.00
36354;BME280;22383;51.114;13.666;2022-10-18T00:25:35;68722.84;;;13.90;100.00
36354;BME280;22383;51.114;13.666;2022-10-18T00:28:02;68715.09;;;13.85;100.00
36354;BME280;22383;51.114;13.666;2022-10-18T00:30:30;68703.13;;;13.74;100.00
36354;BME280;22383;51.114;13.666;2022-10-18T00:33:01;68709.81;;;13.78;100.00
36354;BME280;22383;51.114;13.666;2022-10-18T00:35:28;68715.47;;;13.83;100.00
36354;BME280;22383;51.114;13.666;2022-10-18T00:37:55;68714.34;;;13.82;100.00
36354;BME280;22383;51.114;13.666;2022-10-18T00:40:23;68724.78;;;13.87;100.00
36354;BME280;22383;51.114;13.666;2022-10-18T00:42:50;68732.34;;;13.96;100.00
36354;BME280;22383;51.114;13.666;2022-10-18T00:45:20;68707.50;;;13.76;100.00
36354;BME280;22383;51.114;13.666;2022-10-18T00:47:51;68713.38;;;13.84;100.00
36354;BME280;22383;51.114;13.666;2022-10-18T00:50:20;68701.81;;;13.71;100.00
36354;BME280;22383;51.114;13.666;2022-10-18T00:52:52;68698.44;;;13.68;100.00
36354;BME280;22383;51.114;13.666;2022-10-18T00:55:20;68689.91;;;13.60;100.00
36354;BME280;22383;51.114;13.666;2022-10-18T00:57:47;68682.50;;;13.53;100.00
36354;BME280;22383;51.114;13.666;2022-10-18T01:00:16;68692.56;;;13.60;100.00
36354;BME280;22383;51.114;13.666;2022-10-18T01:02:45;68683.25;;;13.56;100.00
36354;BME280;22383;51.114;13.666;2022-10-18T01:05:15;68684.41;;;13.57;100.00
36354;BME280;22383;51.114;13.666;2022-10-18T01:11:22;68678.53;;;13.50;100.00
36354;BME280;22383;51.114;13.666;2022-10-18T01:14:50;68679.66;;;13.51;100.00
36354;BME280;22383;51.114;13.666;2022-10-18T01:16:51;68680.81;;;13.52;100.00
36354;BME280;22383;51.114;13.666;2022-10-18T01:27:41;68648.56;;;13.25;100.00
36354;BME280;22383;51.114;13.666;2022-10-18T01:36:17;68652.94;;;13.27;100.00
36354;BME280;22383;51.114;13.666;2022-10-18T01:38:48;68627.91;;;13.26;100.00
36354;BME280;22383;51.114;13.666;2022-10-18T01:41:20;68643.88;;;13.18;100.00
36354;BME280;22383;51.114;13.666;2022-10-18T01:43:53;68646.31;;;13.23;100.00
36354;BME280;22383;51.114;13.666;2022-10-18T01:46:24;68634.59;;;13.15;100.00
36354;BME280;22383;51.114;13.666;2022-10-18T01:48:52;68637.22;;;13.15;100.00
36354;BME280;22383;51.114;13.666;2022-10-18T01:51:38;68639.50;;;13.17;100.00
36354;BME280;22383;51.114;13.666;2022-10-18T01:54:06;68642.72;;;13.17;100.00
36354;BME280;22383;51.114;13.666;2022-10-18T01:59:29;68632.88;;;13.13;100.00
36354;BME280;22383;51.114;13.666;2022-10-18T02:10:02;68634.78;;;13.10;100.00
36354;BME280;22383;51.114;13.666;2022-10-18T02:12:42;68606.91;;;13.07;100.00
36354;BME280;22383;51.114;13.666;2022-10-18T02:15:12;68617.34;;;12.97;100.00
36354;BME280;22383;51.114;13.666;2022-10-18T02:17:43;68623.41;;;13.00;100.00
36354;BME280;22383;51.114;13.666;2022-10-18T02:20:12;68629.28;;;13.00;100.00
36354;BME280;22383;51.114;13.666;2022-10-18T02:22:43;68620.56;;;12.97;100.00
36354;BME280;22383;51.114;13.666;2022-10-18T02:25:23;68618.69;;;12.93;100.00
36354;BME280;22383;51.114;13.666;2022-10-18T02:27:53;68616.41;;;12.91;100.00
36354;BME280;22383;51.114;13.666;2022-10-18T02:30:24;68609.78;;;12.88;100.00
36354;BME280;22383;51.114;13.666;2022-10-18T02:33:00;68609.00;;;12.92;100.00
36354;BME280;22383;51.114;13.666;2022-10-18T02:35:32;68596.69;;;12.97;100.00
36354;BME280;22383;51.114;13.666;2022-10-18T02:38:03;68616.59;;;12.94;100.00
36354;BME280;22383;51.114;13.666;2022-10-18T02:40:31;68613.56;;;12.89;100.00
36354;BME280;22383;51.114;13.666;2022-10-18T02:42:59;68622.25;;;12.99;100.00
36354;BME280;22383;51.114;13.666;2022-10-18T02:45:34;68613.94;;;12.94;100.00
36354;BME280;22383;51.114;13.666;2022-10-18T02:48:02;68613.19;;;12.91;100.00
36354;BME280;22383;51.114;13.666;2022-10-18T02:50:29;68617.16;;;12.94;100.00
36354;BME280;22383;51.114;13.666;2022-10-18T02:52:56;68617.34;;;12.90;100.00
36354;BME280;22383;51.114;13.666;2022-10-18T02:55:23;68620.38;;;12.95;100.00
36354;BME280;22383;51.114;13.666;2022-10-18T02:57:51;68606.75;;;12.82;100.00
36354;BME280;22383;51.114;13.666;2022-10-18T03:00:18;68599.19;;;12.80;100.00
36354;BME280;22383;51.114;13.666;2022-10-18T03:02:48;68605.25;;;12.83;100.00
36354;BME280;22383;51.114;13.666;2022-10-18T03:05:15;68592.94;;;12.75;100.00
36354;BME280;22383;51.114;13.666;2022-10-18T03:07:43;68600.69;;;12.79;100.00
36354;BME280;22383;51.114;13.666;2022-10-18T03:10:10;68604.66;;;12.83;100.00
36354;BME280;22383;51.114;13.666;2022-10-18T03:12:37;68591.63;;;12.71;100.00
36354;BME280;22383;51.114;13.666;2022-10-18T03:15:05;68589.31;;;12.69;100.00
36354;BME280;22383;51.114;13.666;2022-10-18T03:17:32;68584.78;;;12.65;100.00
36354;BME280;22383;51.114;13.666;2022-10-18T03:20:00;68566.56;;;12.70;100.00
36354;BME280;22383;51.114;13.666;2022-10-18T03:22:27;68594.28;;;12.71;100.00
36354;BME280;22383;51.114;13.666;2022-10-18T03:24:55;68586.66;;;12.69;100.00
36354;BME280;22383;51.114;13.666;2022-10-18T03:27:22;68596.16;;;12.75;100.00
36354;BME280;22383;51.114;13.666;2022-10-18T03:29:49;68583.66;;;12.64;100.00
36354;BME280;22383;51.114;13.666;2022-10-18T03:32:17;68570.22;;;12.54;100.00
36354;BME280;22383;51.114;13.666;2022-10-18T03:34:45;68577.41;;;12.58;100.00
36354;BME280;22383;51.114;13.666;2022-10-18T03:37:12;68572.88;;;12.54;100.00
36354;BME280;22383;51.114;13.666;2022-10-18T03:39:40;68582.13;;;12.65;100.00
36354;BME280;22383;51.114;13.666;2022-10-18T03:42:07;68576.06;;;12.62;100.00
36354;BME280;22383;51.114;13.666;2022-10-18T03:44:34;68581.56;;;12.64;100.00
36354;BME280;22383;51.114;13.666;2022-10-18T03:47:02;68593.88;;;12.73;100.00
36354;BME280;22383;51.114;13.666;2022-10-18T03:49:29;68593.31;;;12.73;100.00
36354;BME280;22383;51.114;13.666;2022-10-18T03:51:56;68596.72;;;12.76;100.00
36354;BME280;22383;51.114;13.666;2022-10-18T03:54:24;68578.91;;;12.64;100.00
36354;BME280;22383;51.114;13.666;2022-10-18T03:56:51;68561.47;;;12.65;100.00
36354;BME280;22383;51.114;13.666;2022-10-18T03:59:18;68596.53;;;12.73;100.00
36354;BME280;22383;51.114;13.666;2022-10-18T04:01:46;68591.63;;;12.71;100.00
36354;BME280;22383;51.114;13.666;2022-10-18T04:04:13;68589.53;;;12.72;100.00
36354;BME280;22383;51.114;13.666;2022-10-18T04:06:40;68595.00;;;12.74;100.00
36354;BME280;22383;51.114;13.666;2022-10-18T04:09:08;68584.63;;;12.62;100.00
36354;BME280;22383;51.114;13.666;2022-10-18T04:11:36;68592.75;;;12.72;100.00
36354;BME280;22383;51.114;13.666;2022-10-18T04:14:03;68584.63;;;12.62;100.00
36354;BME280;22383;51.114;13.666;2022-10-18T04:16:31;68566.25;;;12.51;100.00
36354;BME280;22383;51.114;13.666;2022-10-18T04:18:58;68580.81;;;12.61;100.00
36354;BME280;22383;51.114;13.666;2022-10-18T04:21:25;68599.56;;;12.78;100.00
36354;BME280;22383;51.114;13.666;2022-10-18T04:23:52;68603.72;;;12.84;100.00
36354;BME280;22383;51.114;13.666;2022-10-18T04:26:19;68591.03;;;12.71;100.00
36354;BME280;22383;51.114;13.666;2022-10-18T04:28:47;68595.94;;;12.73;100.00
36354;BME280;22383;51.114;13.666;2022-10-18T04:31:14;68578.34;;;12.64;100.00
36354;BME280;22383;51.114;13.666;2022-10-18T04:33:41;68577.22;;;12.56;100.00
36354;BME280;22383;51.114;13.666;2022-10-18T04:36:09;68573.44;;;12.55;100.00
36354;BME280;22383;51.114;13.666;2022-10-18T04:38:36;68562.06;;;12.44;100.00
36354;BME280;22383;51.114;13.666;2022-10-18T04:41:03;68562.47;;;12.42;100.00
36354;BME280;22383;51.114;13.666;2022-10-18T04:43:31;68565.88;;;12.45;100.00
36354;BME280;22383;51.114;13.666;2022-10-18T04:45:58;68557.72;;;12.43;100.00
36354;BME280;22383;51.114;13.666;2022-10-18T04:48:26;68534.81;;;12.41;100.00
36354;BME280;22383;51.114;13.666;2022-10-18T04:50:53;68548.66;;;12.35;100.00
36354;BME280;22383;51.114;13.666;2022-10-18T04:53:20;68568.53;;;12.45;100.00
36354;BME280;22383;51.114;13.666;2022-10-18T04:55:48;68566.03;;;12.48;100.00
36354;BME280;22383;51.114;13.666;2022-10-18T04:58:16;68561.13;;;12.46;100.00
36354;BME280;22383;51.114;13.666;2022-10-18T05:00:44;68548.28;;;12.29;100.00
36354;BME280;22383;51.114;13.666;2022-10-18T05:03:14;68547.88;;;12.32;100.00
36354;BME280;22383;51.114;13.666;2022-10-18T05:05:42;68547.50;;;12.34;100.00
36354;BME280;22383;51.114;13.666;2022-10-18T05:08:27;68538.06;;;12.27;100.00
36354;BME280;22383;51.114;13.666;2022-10-18T05:10:54;68546.19;;;12.30;100.00
36354;BME280;22383;51.114;13.666;2022-10-18T05:13:22;68547.88;;;12.32;100.00
36354;BME280;22383;51.114;13.666;2022-10-18T05:15:49;68540.31;;;12.29;100.00
36354;BME280;22383;51.114;13.666;2022-10-18T05:18:17;68547.13;;;12.36;100.00
36354;BME280;22383;51.114;13.666;2022-10-18T05:20:45;68530.84;;;12.38;100.00
36354;BME280;22383;51.114;13.666;2022-10-18T05:23:12;68547.69;;;12.36;100.00
36354;BME280;22383;51.114;13.666;2022-10-18T05:25:40;68574.00;;;12.55;100.00
36354;BME280;22383;51.114;13.666;2022-10-18T05:28:08;68567.94;;;12.52;100.00
36354;BME280;22383;51.114;13.666;2022-10-18T05:30:42;68578.34;;;12.57;100.00
36354;BME280;22383;51.114;13.666;2022-10-18T05:33:09;68576.28;;;12.57;100.00
36354;BME280;22383;51.114;13.666;2022-10-18T05:35:36;68541.03;;;12.47;100.00
36354;BME280;22383;51.114;13.666;2022-10-18T05:38:04;68583.84;;;12.59;100.00
36354;BME280;22383;51.114;13.666;2022-10-18T05:40:32;68560.91;;;12.65;100.00
36354;BME280;22383;51.114;13.666;2022-10-18T05:43:00;68574.56;;;12.56;100.00
36354;BME280;22383;51.114;13.666;2022-10-18T05:45:27;68574.00;;;12.55;100.00
36354;BME280;22383;51.114;13.666;2022-10-18T05:47:54;68574.56;;;12.56;100.00
36354;BME280;22383;51.114;13.666;2022-10-18T05:50:21;68570.59;;;12.52;100.00
36354;BME280;22383;51.114;13.666;2022-10-18T05:53:04;68569.09;;;12.46;100.00
36354;BME280;22383;51.114;13.666;2022-10-18T05:55:38;68569.28;;;12.48;100.00
36354;BME280;22383;51.114;13.666;2022-10-18T05:58:05;68565.69;;;12.50;100.00
36354;BME280;22383;51.114;13.666;2022-10-18T06:00:33;68565.31;;;12.45;100.00
36354;BME280;22383;51.114;13.666;2022-10-18T06:03:00;68563.41;;;12.48;100.00
36354;BME280;22383;51.114;13.666;2022-10-18T06:05:27;68565.88;;;12.45;100.00
36354;BME280;22383;51.114;13.666;2022-10-18T06:07:55;68561.13;;;12.46;100.00
36354;BME280;22383;51.114;13.666;2022-10-18T06:10:23;68574.19;;;12.58;100.00
36354;BME280;22383;51.114;13.666;2022-10-18T06:12:50;68552.41;;;12.57;100.00
36354;BME280;22383;51.114;13.666;2022-10-18T06:15:18;68572.47;;;12.56;100.00
36354;BME280;22383;51.114;13.666;2022-10-18T06:17:45;68573.44;;;12.55;100.00
36354;BME280;22383;51.114;13.666;2022-10-18T06:20:12;68570.59;;;12.52;100.00
36354;BME280;22383;51.114;13.666;2022-10-18T06:22:39;68570.22;;;12.54;100.00
36354;BME280;22383;51.114;13.666;2022-10-18T06:25:07;68588.19;;;12.68;100.00
36354;BME280;22383;51.114;13.666;2022-10-18T06:27:34;68580.25;;;12.61;100.00
36354;BME280;22383;51.114;13.666;2022-10-18T06:30:02;68550.69;;;12.56;100.00
36354;BME280;22383;51.114;13.666;2022-10-18T06:32:30;68568.91;;;12.51;100.00
36354;BME280;22383;51.114;13.666;2022-10-18T06:34:59;68558.84;;;12.44;100.00
36354;BME280;22383;51.114;13.666;2022-10-18T06:37:28;68555.28;;;12.38;100.00
36354;BME280;22383;51.114;13.666;2022-10-18T06:39:57;68573.44;;;12.55;100.00
36354;BME280;22383;51.114;13.666;2022-10-18T06:42:24;68580.25;;;12.61;100.00
36354;BME280;22383;51.114;13.666;2022-10-18T06:44:53;68571.16;;;12.53;100.00
36354;BME280;22383;51.114;13.666;2022-10-18T06:47:21;68562.84;;;12.47;100.00
36354;BME280;22383;51.114;13.666;2022-10-18T06:49:48;68563.03;;;12.50;100.00
36354;BME280;22383;51.114;13.666;2022-10-18T06:52:16;68554.88;;;12.40;100.00
36354;BME280;22383;51.114;13.666;2022-10-18T06:54:43;68558.28;;;12.43;100.00
36354;BME280;22383;51.114;13.666;2022-10-18T06:57:11;68576.28;;;12.57;100.00
36354;BME280;22383;51.114;13.666;2022-10-18T06:59:38;68589.53;;;12.72;100.00
36354;BME280;22383;51.114;13.666;2022-10-18T07:02:06;68578.16;;;12.61;100.00
36354;BME280;22383;51.114;13.666;2022-10-18T07:04:33;68587.63;;;12.67;100.00
36354;BME280;22383;51.114;13.666;2022-10-18T07:07:00;68580.25;;;12.61;100.00
36354;BME280;22383;51.114;13.666;2022-10-18T07:09:28;68594.06;;;12.76;100.00
36354;BME280;22383;51.114;13.666;2022-10-18T07:11:55;68593.88;;;12.73;100.00
36354;BME280;22383;51.114;13.666;2022-10-18T07:14:22;68576.78;;;12.79;100.00
36354;BME280;22383;51.114;13.666;2022-10-18T07:16:58;68617.16;;;12.94;100.00
36354;BME280;22383;51.114;13.666;2022-10-18T07:19:25;68621.31;;;13.00;100.00
36354;BME280;22383;51.114;13.666;2022-10-18T07:21:52;68614.31;;;12.92;100.00
36354;BME280;22383;51.114;13.666;2022-10-18T07:24:20;68622.84;;;12.99;100.00
36354;BME280;22383;51.114;13.666;2022-10-18T07:26:47;68601.28;;;12.80;100.00
36354;BME280;22383;51.114;13.666;2022-10-18T07:29:15;68589.84;;;12.91;100.00
36354;BME280;22383;51.114;13.666;2022-10-18T07:31:42;68624.56;;;13.01;100.00
36354;BME280;22383;51.114;13.666;2022-10-18T07:34:11;68614.50;;;12.94;100.00
36354;BME280;22383;51.114;13.666;2022-10-18T07:36:39;68623.41;;;13.00;100.00
36354;BME280;22383;51.114;13.666;2022-10-18T07:39:07;68620.56;;;12.97;100.00
36354;BME280;22383;51.114;13.666;2022-10-18T07:41:35;68632.69;;;13.11;100.00
36354;BME280;22383;51.114;13.666;2022-10-18T07:44:03;68633.63;;;13.09;100.00
36354;BME280;22383;51.114;13.666;2022-10-18T07:46:30;68637.22;;;13.15;100.00
36354;BME280;22383;51.114;13.666;2022-10-18T07:48:58;68642.16;;;13.17;100.00
36354;BME280;22383;51.114;13.666;2022-10-18T07:51:25;68635.34;;;13.11;100.00
36354;BME280;22383;51.114;13.666;2022-10-18T07:53:53;68646.31;;;13.23;100.00
36354;BME280;22383;51.114;13.666;2022-10-18T07:56:21;68649.53;;;13.23;100.00
36354;BME280;22383;51.114;13.666;2022-10-18T07:58:50;68649.53;;;13.23;100.00
36354;BME280;22383;51.114;13.666;2022-10-18T08:01:19;68635.53;;;13.13;100.00
36354;BME280;22383;51.114;13.666;2022-10-18T08:03:47;68666.78;;;13.41;100.00
36354;BME280;22383;51.114;13.666;2022-10-18T08:06:15;68646.31;;;13.23;100.00
36354;BME280;22383;51.114;13.666;2022-10-18T08:08:44;68644.59;;;13.21;100.00
36354;BME280;22383;51.114;13.666;2022-10-18T08:11:17;68659.22;;;13.32;100.00
36354;BME280;22383;51.114;13.666;2022-10-18T08:13:45;68645.53;;;13.41;100.00
36354;BME280;22383;51.114;13.666;2022-10-18T08:16:15;68659.00;;;13.30;100.00
36354;BME280;22383;51.114;13.666;2022-10-18T08:18:42;68675.13;;;13.47;100.00
36354;BME280;22383;51.114;13.666;2022-10-18T08:21:12;68659.97;;;13.35;100.00
36354;BME280;22383;51.114;13.666;2022-10-18T08:23:40;68663.38;;;13.38;100.00
36354;BME280;22383;51.114;13.666;2022-10-18T08:26:12;68659.78;;;13.33;100.00
36354;BME280;22383;51.114;13.666;2022-10-18T08:28:40;68668.88;;;13.41;100.00
36354;BME280;22383;51.114;13.666;2022-10-18T08:31:20;68655.78;;;13.29;100.00
36354;BME280;22383;51.114;13.666;2022-10-18T08:33:47;68650.88;;;13.27;100.00
36354;BME280;22383;51.114;13.666;2022-10-18T08:36:15;68655.22;;;13.29;100.00
36354;BME280;22383;51.114;13.666;2022-10-18T08:38:42;68666.59;;;13.39;100.00
36354;BME280;22383;51.114;13.666;2022-10-18T08:44:20;68675.13;;;13.47;100.00
36354;BME280;22383;51.114;13.666;2022-10-18T08:46:51;68663.78;;;13.36;100.00
36354;BME280;22383;51.114;13.666;2022-10-18T08:49:40;68653.53;;;13.27;100.00
36354;BME280;22383;51.114;13.666;2022-10-18T08:52:33;68654.66;;;13.28;100.00
36354;BME280;22383;51.114;13.666;2022-10-18T08:55:21;68641.78;;;13.19;100.00
36354;BME280;22383;51.114;13.666;2022-10-18T08:57:51;68661.50;;;13.34;100.00
36354;BME280;22383;51.114;13.666;2022-10-18T09:00:23;68630.16;;;13.28;100.00
36354;BME280;22383;51.114;13.666;2022-10-18T09:03:15;68669.44;;;13.41;100.00
36354;BME280;22383;51.114;13.666;2022-10-18T09:08:21;68654.47;;;13.33;100.00
36354;BME280;22383;51.114;13.666;2022-10-18T09:11:04;68675.13;;;13.47;100.00
36354;BME280;22383;51.114;13.666;2022-10-18T09:22:19;68725.88;;;13.95;100.00
36354;BME280;22383;51.114;13.666;2022-10-18T09:25:02;68738.75;;;14.04;100.00
36354;BME280;22383;51.114;13.666;2022-10-18T09:28:06;68731.41;;;13.97;100.00
36354;BME280;22383;51.114;13.666;2022-10-18T09:30:53;68700.06;;;13.91;100.00
36354;BME280;22383;51.114;13.666;2022-10-18T09:36:20;68696.66;;;13.88;100.00
36354;BME280;22383;51.114;13.666;2022-10-18T09:38:55;68758.69;;;14.22;100.00
36354;BME280;22383;51.114;13.666;2022-10-18T09:44:22;68768.34;;;14.31;100.00
36354;BME280;22383;51.114;13.666;2022-10-18T09:47:44;68776.09;;;14.35;100.00
36354;BME280;22383;51.114;13.666;2022-10-18T09:49:46;68772.88;;;14.35;100.00
36354;BME280;22383;51.114;13.666;2022-10-18T09:52:22;68766.41;;;14.34;100.00
36354;BME280;22383;51.114;13.666;2022-10-18T09:54:53;68746.66;;;14.33;100.00
36354;BME280;22383;51.114;13.666;2022-10-18T09:57:36;68768.34;;;14.31;100.00
36354;BME280;22383;51.114;13.666;2022-10-18T10:00:13;68782.38;;;14.41;100.00
36354;BME280;22383;51.114;13.666;2022-10-18T10:02:41;68769.41;;;14.53;100.00
36354;BME280;22383;51.114;13.666;2022-10-18T10:05:12;68817.44;;;14.78;100.00
36354;BME280;22383;51.114;13.666;2022-10-18T10:07:45;68839.22;;;15.00;100.00
36354;BME280;22383;51.114;13.666;2022-10-18T10:10:20;68852.72;;;15.09;100.00
36354;BME280;22383;51.114;13.666;2022-10-18T10:12:48;68868.06;;;15.23;100.00
36354;BME280;22383;51.114;13.666;2022-10-18T10:15:28;68885.91;;;15.35;100.00
36354;BME280;22383;51.114;13.666;2022-10-18T10:18:18;68896.34;;;15.46;100.00
36354;BME280;22383;51.114;13.666;2022-10-18T10:20:52;68846.44;;;15.04;100.00
36354;BME280;22383;51.114;13.666;2022-10-18T10:23:25;68778.50;;;14.62;100.00
36354;BME280;22383;51.114;13.666;2022-10-18T10:25:57;68788.25;;;14.49;100.00
36354;BME280;22383;51.114;13.666;2022-10-18T10:28:28;68771.09;;;14.55;100.00
36354;BME280;22383;51.114;13.666;2022-10-18T10:31:36;68791.81;;;14.54;100.00
36354;BME280;22383;51.114;13.666;2022-10-18T10:36:32;68754.69;;;14.18;100.00
36354;BME280;22383;51.114;13.666;2022-10-18T10:39:15;68737.63;;;14.03;100.00
36354;BME280;22383;51.114;13.666;2022-10-18T10:41:50;68741.25;;;14.02;100.00
36354;BME280;22383;51.114;13.666;2022-10-18T10:44:26;68708.56;;;13.98;100.00
36354;BME280;22383;51.114;13.666;2022-10-18T10:46:55;68716.03;;;13.84;100.00
36354;BME280;22383;51.114;13.666;2022-10-18T10:49:50;68711.88;;;13.77;100.00
36354;BME280;22383;51.114;13.666;2022-10-18T10:52:22;68708.81;;;13.79;100.00
36354;BME280;22383;51.114;13.666;2022-10-18T10:54:56;68702.56;;;13.74;100.00
36354;BME280;22383;51.114;13.666;2022-10-18T10:57:46;68705.81;;;13.74;100.00
36354;BME280;22383;51.114;13.666;2022-10-18T11:03:20;68708.09;;;13.76;100.00
36354;BME280;22383;51.114;13.666;2022-10-18T11:05:56;68714.34;;;13.82;100.00
36354;BME280;22383;51.114;13.666;2022-10-18T11:08:34;68702.78;;;13.76;100.00
36354;BME280;22383;51.114;13.666;2022-10-18T11:11:20;68698.59;;;13.70;100.00
36354;BME280;22383;51.114;13.666;2022-10-18T11:14:15;68708.47;;;13.74;100.00
36354;BME280;22383;51.114;13.666;2022-10-18T11:22:57;68720.03;;;13.87;100.00
36354;BME280;22383;51.114;13.666;2022-10-18T11:25:24;68731.97;;;13.98;100.00
36354;BME280;22383;51.114;13.666;2022-10-18T11:28:01;68739.34;;;14.05;100.00
36354;BME280;22383;51.114;13.666;2022-10-18T11:30:47;68725.31;;;13.94;100.00
36354;BME280;22383;51.114;13.666;2022-10-18T11:35:52;68738.75;;;14.04;100.00
36354;BME280;22383;51.114;13.666;2022-10-18T11:41:49;68749.19;;;14.16;100.00
36354;BME280;22383;51.114;13.666;2022-10-18T11:44:38;68750.72;;;14.15;100.00
36354;BME280;22383;51.114;13.666;2022-10-18T11:52:44;68723.91;;;14.12;100.00
36354;BME280;22383;51.114;13.666;2022-10-18T11:55:26;68737.06;;;14.03;100.00
36354;BME280;22383;51.114;13.666;2022-10-18T11:58:11;68739.34;;;14.05;100.00
36354;BME280;22383;51.114;13.666;2022-10-18T12:00:48;68712.56;;;14.02;100.00
36354;BME280;22383;51.114;13.666;2022-10-18T12:06:20;68735.38;;;14.01;100.00
36354;BME280;22383;51.114;13.666;2022-10-18T12:08:52;68728.16;;;13.97;100.00
36354;BME280;22383;51.114;13.666;2022-10-18T12:11:29;68729.69;;;13.96;100.00
36354;BME280;22383;51.114;13.666;2022-10-18T12:14:02;68737.06;;;14.03;100.00
36354;BME280;22383;51.114;13.666;2022-10-18T12:16:33;68727.97;;;13.94;100.00
36354;BME280;22383;51.114;13.666;2022-10-18T12:19:28;68738.75;;;14.04;100.00
36354;BME280;22383;51.114;13.666;2022-10-18T12:22:09;68717.69;;;14.07;100.00
36354;BME280;22383;51.114;13.666;2022-10-18T12:24:39;68734.97;;;14.03;100.00
36354;BME280;22383;51.114;13.666;2022-10-18T12:27:11;68739.53;;;14.07;100.00
36354;BME280;22383;51.114;13.666;2022-10-18T12:29:46;68730.06;;;13.94;100.00
36354;BME280;22383;51.114;13.666;2022-10-18T12:32:20;68701.19;;;13.92;100.00
36354;BME280;22383;51.114;13.666;2022-10-18T12:34:51;68704.13;;;13.73;100.00
36354;BME280;22383;51.114;13.666;2022-10-18T12:40:15;68701.25;;;13.70;100.00
36354;BME280;22383;51.114;13.666;2022-10-18T12:42:50;68711.31;;;13.77;100.00
36354;BME280;22383;51.114;13.666;2022-10-18T12:45:28;68709.41;;;13.80;100.00
36354;BME280;22383;51.114;13.666;2022-10-18T12:48:07;68704.28;;;13.75;100.00
36354;BME280;22383;51.114;13.666;2022-10-18T12:50:43;68714.91;;;13.83;100.00
36354;BME280;22383;51.114;13.666;2022-10-18T12:55:41;68706.00;;;13.77;100.00
36354;BME280;22383;51.114;13.666;2022-10-18T13:22:30;68702.56;;;13.74;100.00
36354;BME280;22383;51.114;13.666;2022-10-18T13:27:59;68699.91;;;13.74;100.00
36354;BME280;22383;51.114;13.666;2022-10-18T13:30:43;68703.13;;;13.74;100.00
36354;BME280;22383;51.114;13.666;2022-10-18T13:33:43;68696.16;;;13.66;100.00
36354;BME280;22383;51.114;13.666;2022-10-18T13:41:25;68691.78;;;13.64;100.00
36354;BME280;22383;51.114;13.666;2022-10-18T13:44:35;68687.81;;;13.60;100.00
36354;BME280;22383;51.114;13.666;2022-10-18T13:55:53;68670.53;;;13.64;100.00
36354;BME280;22383;51.114;13.666;2022-10-18T13:58:42;68699.56;;;13.69;100.00
36354;BME280;22383;51.114;13.666;2022-10-18T14:01:45;68673.91;;;13.67;100.00
36354;BME280;22383;51.114;13.666;2022-10-18T14:07:15;68706.38;;;13.75;100.00
36354;BME280;22383;51.114;13.666;2022-10-18T14:09:50;68703.91;;;13.77;100.00
36354;BME280;22383;51.114;13.666;2022-10-18T14:12:37;68710.53;;;13.81;100.00
36354;BME280;22383;51.114;13.666;2022-10-18T14:15:17;68687.00;;;13.79;100.00
36354;BME280;22383;51.114;13.666;2022-10-18T14:20:37;68719.63;;;13.89;100.00
36354;BME280;22383;51.114;13.666;2022-10-18T14:23:32;68713.38;;;13.84;100.00
36354;BME280;22383;51.114;13.666;2022-10-18T14:26:18;68716.22;;;13.86;100.00
36354;BME280;22383;51.114;13.666;2022-10-18T14:29:04;68716.22;;;13.86;100.00
36354;BME280;22383;51.114;13.666;2022-10-18T14:31:32;68708.47;;;13.82;100.00
36354;BME280;22383;51.114;13.666;2022-10-18T14:34:01;68713.94;;;13.84;100.00
36354;BME280;22383;51.114;13.666;2022-10-18T14:36:40;68715.47;;;13.83;100.00
36354;BME280;22383;51.114;13.666;2022-10-18T14:39:18;68718.13;;;13.90;100.00
36354;BME280;22383;51.114;13.666;2022-10-18T14:41:55;68715.66;;;13.86;100.00
36354;BME280;22383;51.114;13.666;2022-10-18T14:44:28;68676.22;;;13.69;100.00
36354;BME280;22383;51.114;13.666;2022-10-18T14:47:28;68702.41;;;13.71;100.00
36354;BME280;22383;51.114;13.666;2022-10-18T14:50:02;68695.78;;;13.68;100.00
36354;BME280;22383;51.114;13.666;2022-10-18T14:52:32;68699.16;;;13.71;100.00
36354;BME280;22383;51.114;13.666;2022-10-18T14:55:02;68700.31;;;13.72;100.00
36354;BME280;22383;51.114;13.666;2022-10-18T14:57:31;68699.75;;;13.71;100.00
36354;BME280;22383;51.114;13.666;2022-10-18T15:00:06;68695.56;;;13.65;100.00
36354;BME280;22383;51.114;13.666;2022-10-18T15:02:36;68690.09;;;13.63;100.00
36354;BME280;22383;51.114;13.666;2022-10-18T15:05:09;68690.66;;;13.63;100.00
36354;BME280;22383;51.114;13.666;2022-10-18T15:07:44;68684.41;;;13.57;100.00
36354;BME280;22383;51.114;13.666;2022-10-18T15:10:16;68685.91;;;13.56;100.00
36354;BME280;22383;51.114;13.666;2022-10-18T15:12:45;68685.53;;;13.58;100.00